Time;durP1;ratioP1;P1;durP2;ratioP2;P2;SDS_P1;SDS_P2;PMS_P1;PMS_P2;Temp;Humidity;BMP_temperature;BMP_pressure;BME280_temperature;BME280_humidity;BME280_pressure;Samples;Min_cycle;Max_cycle;Signal;HPM_P1;HPM_P2
2021/12/28 00:01:35;;;;;;;28.90;14.57;;;;;;;3.41;47.80;100006.41;5372886;32;34068;-68
2021/12/28 00:04:43;;;;;;;30.63;15.00;;;;;;;3.02;48.73;100002.69;5363941;32;33995;-61
2021/12/28 00:07:51;;;;;;;29.47;15.03;;;;;;;2.78;49.58;100009.09;5371528;32;34259;-61
2021/12/28 00:11:03;;;;;;;32.53;15.17;;;;;;;2.68;48.69;100001.41;5364806;32;34337;-62
2021/12/28 00:14:11;;;;;;;32.93;15.57;;;;;;;3.12;47.78;99996.50;5389974;32;33747;-66
2021/12/28 00:20:47;;;;;;;32.83;16.40;;;;;;;3.19;47.21;99998.97;5378916;32;35884;-67
2021/12/28 00:23:53;;;;;;;28.67;14.73;;;;;;;3.15;47.72;99992.09;5376548;32;34475;-66
2021/12/28 00:26:56;;;;;;;27.67;12.83;;;;;;;2.31;50.15;99994.97;5364253;32;34147;-62
2021/12/28 00:30:09;;;;;;;29.37;14.20;;;;;;;3.11;48.55;99998.22;5388679;32;32763;-67
2021/12/28 00:33:13;;;;;;;29.70;14.87;;;;;;;3.12;48.57;100001.69;5357910;32;34278;-67
2021/12/28 00:36:19;;;;;;;32.50;15.17;;;;;;;2.89;48.99;99989.88;5388564;32;34117;-62
2021/12/28 00:39:22;;;;;;;32.57;15.40;;;;;;;3.07;48.91;99999.16;5353922;32;34517;-66
2021/12/28 00:42:26;;;;;;;27.80;14.00;;;;;;;3.32;48.76;99999.63;5391478;32;34121;-67
2021/12/28 00:45:34;;;;;;;32.70;13.57;;;;;;;2.89;49.71;100002.84;5372368;32;33891;-62
2021/12/28 00:48:39;;;;;;;29.10;13.70;;;;;;;2.96;50.55;100003.63;5368292;32;34593;-66
2021/12/28 00:51:50;;;;;;;19.30;8.13;;;;;;;2.74;52.62;100012.59;5355199;32;33724;-62
2021/12/28 00:54:53;;;;;;;32.00;13.57;;;;;;;2.92;53.09;100009.75;5366693;32;34219;-67
2021/12/28 00:58:01;;;;;;;23.97;10.50;;;;;;;2.32;55.85;100009.63;5391556;32;34212;-62
2021/12/28 01:01:11;;;;;;;31.97;14.50;;;;;;;2.00;57.73;100010.03;5361794;32;34230;-66
2021/12/28 01:04:15;;;;;;;27.83;12.33;;;;;;;1.78;58.94;100007.63;5366161;32;35017;-62
2021/12/28 01:07:22;;;;;;;31.57;14.87;;;;;;;2.56;56.85;99992.94;5371356;32;34399;-62
2021/12/28 01:10:33;;;;;;;32.13;14.30;;;;;;;2.28;57.87;100003.66;5363302;32;34093;-68
2021/12/28 01:13:36;;;;;;;33.50;15.07;;;;;;;2.94;55.27;100000.19;5396689;32;34213;-61
2021/12/28 01:16:41;;;;;;;34.53;14.77;;;;;;;3.34;54.43;100000.47;5371364;32;33180;-67
2021/12/28 01:19:46;;;;;;;30.53;14.43;;;;;;;2.88;55.72;99997.69;5393885;32;33097;-61
2021/12/28 01:22:49;;;;;;;34.43;15.23;;;;;;;2.22;57.93;100002.87;5393123;32;34809;-67
2021/12/28 01:25:52;;;;;;;30.27;13.87;;;;;;;2.22;59.15;99992.50;5371317;32;33482;-62
2021/12/28 01:28:55;;;;;;;31.03;14.83;;;;;;;2.46;58.30;99988.75;5395930;32;35040;-67
2021/12/28 01:32:04;;;;;;;33.77;14.17;;;;;;;1.84;60.69;100001.53;5366468;32;33132;-66
2021/12/28 01:35:08;;;;;;;;;;;;;;;2.28;60.79;99995.00;5393862;32;34541;-61
2021/12/28 01:38:22;;;;;;;28.93;13.07;;;;;;;2.41;59.60;99975.84;5374908;32;32803;-62
2021/12/28 01:41:29;;;;;;;33.30;14.67;;;;;;;1.49;63.12;99978.53;5346502;32;34179;-67
2021/12/28 01:44:32;;;;;;;28.52;13.43;;;;;;;2.14;61.30;99980.47;5387955;32;34016;-68
2021/12/28 01:47:35;;;;;;;28.97;13.63;;;;;;;2.37;61.61;99976.75;5381893;32;34386;-68
2021/12/28 01:50:38;;;;;;;26.17;13.37;;;;;;;2.43;61.21;99976.66;5372900;32;33561;-62
2021/12/28 01:53:45;;;;;;;30.95;14.32;;;;;;;2.65;60.33;99985.91;5364532;32;33065;-62
2021/12/28 01:56:51;;;;;;;26.70;13.33;;;;;;;3.43;56.98;99974.34;5361054;32;33026;-62
2021/12/28 01:59:58;;;;;;;30.33;14.43;;;;;;;3.51;56.23;99958.62;5366151;32;34624;-68
2021/12/28 02:03:09;;;;;;;33.03;13.40;;;;;;;2.77;59.14;99974.50;5385397;32;33842;-62
2021/12/28 02:06:13;;;;;;;32.73;15.27;;;;;;;2.27;61.06;99976.00;5373826;32;33730;-67
2021/12/28 02:09:17;;;;;;;33.45;14.32;;;;;;;2.30;60.99;99980.28;5385013;32;35274;-67
2021/12/28 02:12:21;;;;;;;32.87;14.47;;;;;;;2.52;61.12;99973.97;5379658;32;32620;-61
2021/12/28 02:15:24;;;;;;;34.28;16.23;;;;;;;3.19;58.06;99974.72;5348960;32;33817;-67
2021/12/28 02:18:29;;;;;;;31.00;15.00;;;;;;;2.05;60.97;99977.97;5359271;32;32907;-69
2021/12/28 02:21:34;;;;;;;34.80;16.03;;;;;;;2.31;60.36;99969.87;5374144;32;33511;-68
2021/12/28 02:24:40;;;;;;;35.77;15.80;;;;;;;3.26;56.62;99973.75;5380819;32;33171;-69
2021/12/28 02:27:50;;;;;;;38.50;16.20;;;;;;;3.51;55.61;99963.81;5387247;32;34678;-61
2021/12/28 02:30:57;;;;;;;38.27;16.83;;;;;;;3.69;54.59;99945.31;5367489;32;35567;-61
2021/12/28 02:34:05;;;;;;;34.73;16.27;;;;;;;3.50;54.51;99951.72;5367413;32;34377;-68
2021/12/28 02:37:10;;;;;;;42.40;17.17;;;;;;;3.04;56.12;99942.09;5387791;32;34081;-66
2021/12/28 02:40:22;;;;;;;37.27;17.57;;;;;;;3.42;55.28;99943.22;5376616;32;35005;-61
2021/12/28 02:43:29;;;;;;;40.37;17.60;;;;;;;3.78;54.22;99944.28;5383910;32;34874;-66
2021/12/28 02:46:33;;;;;;;40.73;18.33;;;;;;;2.85;56.61;99938.91;5366283;32;34160;-62
2021/12/28 02:49:37;;;;;;;39.77;18.53;;;;;;;2.27;58.19;99944.03;5377973;32;33011;-61
2021/12/28 02:52:48;;;;;;;36.07;17.80;;;;;;;3.32;56.93;99959.81;5368712;32;34689;-61
2021/12/28 02:55:54;;;;;;;36.63;16.93;;;;;;;2.72;59.48;99947.75;5338701;32;35054;-67
2021/12/28 02:59:03;;;;;;;38.53;18.17;;;;;;;3.06;59.15;99942.91;5362144;32;33612;-61
2021/12/28 03:02:09;;;;;;;41.17;18.70;;;;;;;2.85;59.60;99935.44;5353442;32;34800;-61
2021/12/28 03:05:16;;;;;;;39.77;18.10;;;;;;;1.83;63.39;99935.03;5343179;33;32886;-67
2021/12/28 03:08:23;;;;;;;38.50;17.73;;;;;;;2.59;60.55;99944.47;5333756;32;33598;-61
2021/12/28 03:11:28;;;;;;;41.97;18.37;;;;;;;2.13;61.93;99957.16;5339971;32;34051;-67
2021/12/28 03:14:30;;;;;;;41.80;17.73;;;;;;;2.78;60.66;99946.81;5371436;32;33900;-67
2021/12/28 03:17:33;;;;;;;40.37;18.80;;;;;;;2.04;63.18;99958.09;5343611;32;34917;-66
2021/12/28 03:20:37;;;;;;;43.83;18.80;;;;;;;3.47;60.27;99947.41;5345778;32;33209;-61
2021/12/28 03:23:41;;;;;;;43.47;18.43;;;;;;;2.82;61.75;99949.31;5351995;32;34048;-67
2021/12/28 03:26:44;;;;;;;43.10;17.37;;;;;;;2.25;65.00;99945.75;5383439;32;34918;-67
2021/12/28 03:29:47;;;;;;;41.15;17.73;;;;;;;3.67;60.01;99934.09;5367963;32;33277;-68
2021/12/28 03:32:51;;;;;;;40.23;17.40;;;;;;;3.32;60.51;99939.87;5384636;32;34235;-67
2021/12/28 03:35:57;;;;;;;39.40;16.90;;;;;;;3.05;63.17;99949.00;5394371;32;32927;-62
2021/12/28 03:39:01;;;;;;;40.43;17.83;;;;;;;3.49;60.99;99927.47;5376830;32;34995;-67
2021/12/28 03:42:05;;;;;;;41.60;18.58;;;;;;;2.32;65.70;99948.28;5400469;32;33304;-61
2021/12/28 03:45:14;;;;;;;41.27;17.43;;;;;;;1.47;72.22;99950.03;5376831;32;34107;-62
2021/12/28 03:48:18;;;;;;;47.70;18.27;;;;;;;1.75;71.71;99955.00;5362552;32;33980;-66
2021/12/28 03:51:25;;;;;;;47.40;18.80;;;;;;;1.23;71.75;99955.47;5383425;32;34914;-61
2021/12/28 03:54:27;;;;;;;38.38;17.92;;;;;;;2.11;69.37;99951.12;5359709;32;35517;-61
2021/12/28 03:57:33;;;;;;;47.07;17.70;;;;;;;2.20;69.42;99942.41;5377887;32;34061;-66
2021/12/28 04:00:41;;;;;;;41.05;17.08;;;;;;;2.23;69.64;99956.16;5376865;32;34823;-67
2021/12/28 04:03:48;;;;;;;41.77;17.97;;;;;;;2.75;67.08;99958.06;5371350;32;33383;-62
2021/12/28 04:06:53;;;;;;;43.47;17.13;;;;;;;2.77;67.41;99963.22;5356906;32;34184;-66
2021/12/28 04:10:02;;;;;;;39.73;17.33;;;;;;;2.91;67.31;99953.53;5380559;32;34701;-61
2021/12/28 04:13:08;;;;;;;35.47;15.73;;;;;;;3.12;65.31;99953.19;5350014;32;32781;-67
2021/12/28 04:16:12;;;;;;;38.53;16.33;;;;;;;2.59;67.64;99956.59;5354873;32;34131;-61
2021/12/28 04:19:14;;;;;;;;;;;;;;;3.60;63.44;99947.19;5389544;32;34923;-61
2021/12/28 04:22:18;;;;;;;35.53;15.32;;;;;;;3.64;63.20;99934.13;5371237;32;34231;-67
2021/12/28 04:25:34;;;;;;;32.27;14.50;;;;;;;3.55;63.44;99942.09;5379065;32;32788;-62
2021/12/28 04:28:45;;;;;;;38.23;15.90;;;;;;;3.49;63.62;99943.06;5376558;32;35953;-62
2021/12/28 04:31:47;;;;;;;29.63;13.73;;;;;;;3.13;64.17;99949.72;5362904;32;34427;-66
2021/12/28 04:34:52;;;;;;;36.83;16.53;;;;;;;3.34;64.63;99951.09;5381472;32;34389;-66
2021/12/28 04:38:00;;;;;;;37.03;15.47;;;;;;;3.45;63.71;99950.94;5356383;32;33299;-62
2021/12/28 04:41:06;;;;;;;40.47;17.00;;;;;;;3.40;63.98;99952.75;5371387;32;35601;-67
2021/12/28 04:44:13;;;;;;;36.90;17.17;;;;;;;3.13;64.73;99962.69;5361991;32;34582;-67
2021/12/28 04:47:17;;;;;;;38.73;15.90;;;;;;;2.00;70.48;99956.44;5371969;32;34223;-66
2021/12/28 04:50:19;;;;;;;36.20;16.90;;;;;;;2.42;68.82;99954.19;5363433;32;34142;-68
2021/12/28 04:53:29;;;;;;;35.17;15.17;;;;;;;1.89;68.37;99950.50;5361471;32;34095;-62
2021/12/28 04:56:32;;;;;;;36.80;15.40;;;;;;;2.33;68.75;99952.59;5385806;32;34122;-61
2021/12/28 04:59:36;;;;;;;36.73;16.60;;;;;;;2.26;68.71;99952.69;5383052;32;35018;-61
2021/12/28 05:02:41;;;;;;;36.23;15.83;;;;;;;2.13;69.83;99952.84;5372488;32;32941;-69
2021/12/28 05:05:50;;;;;;;34.97;15.07;;;;;;;2.66;67.44;99942.66;5373894;32;34655;-61
2021/12/28 05:08:53;;;;;;;38.50;15.50;;;;;;;1.97;70.63;99951.28;5364860;32;34344;-66
2021/12/28 05:11:56;;;;;;;33.35;13.23;;;;;;;3.03;65.71;99945.56;5397023;32;33318;-62
2021/12/28 05:15:00;;;;;;;32.33;13.77;;;;;;;2.15;68.62;99945.88;5368227;32;35005;-61
2021/12/28 05:18:09;;;;;;;29.90;12.27;;;;;;;2.11;70.40;99951.12;5402729;32;33052;-61
2021/12/28 05:21:17;;;;;;;28.60;12.50;;;;;;;2.93;65.54;99947.44;5373244;32;33318;-62
2021/12/28 05:24:19;;;;;;;29.03;12.73;;;;;;;3.01;65.39;99949.91;5374844;32;33043;-62
2021/12/28 05:27:22;;;;;;;33.03;11.80;;;;;;;2.45;67.02;99956.78;5380583;32;34694;-67
2021/12/28 05:30:30;;;;;;;29.08;11.55;;;;;;;2.75;65.62;99954.63;5360728;32;37765;-62
2021/12/28 05:33:34;;;;;;;28.90;11.03;;;;;;;2.62;66.83;99962.56;5364644;32;34633;-67
2021/12/28 05:36:37;;;;;;;30.67;13.13;;;;;;;1.85;70.19;99952.25;5368310;32;34191;-68
2021/12/28 05:39:43;;;;;;;28.12;13.27;;;;;;;2.32;69.98;99958.66;5363813;32;34668;-60
2021/12/28 05:42:50;;;;;;;27.87;11.90;;;;;;;1.61;71.05;99968.03;5381301;32;33418;-62
2021/12/28 05:45:54;;;;;;;36.47;12.60;;;;;;;2.21;68.79;99951.88;5394232;32;33270;-67
2021/12/28 05:49:01;;;;;;;28.93;11.07;;;;;;;2.86;65.90;99957.94;5382359;32;35111;-61
2021/12/28 05:52:04;;;;;;;25.00;10.83;;;;;;;3.25;64.73;99959.91;5385304;32;35170;-68
2021/12/28 05:55:09;;;;;;;22.62;8.93;;;;;;;3.08;64.95;99967.09;5385966;32;33478;-61
2021/12/28 05:58:19;;;;;;;29.97;10.70;;;;;;;2.70;67.01;99976.31;5361175;32;34525;-62
2021/12/28 06:01:23;;;;;;;27.87;10.63;;;;;;;2.40;67.98;99972.38;5342448;32;35170;-67
2021/12/28 06:04:29;;;;;;;26.03;10.40;;;;;;;2.14;71.00;99977.87;5369914;32;32897;-61
2021/12/28 06:07:32;;;;;;;24.83;10.27;;;;;;;1.89;71.06;99982.47;5368478;32;33345;-61
2021/12/28 06:10:38;;;;;;;24.23;9.83;;;;;;;2.40;69.82;99987.09;5347386;33;35347;-67
2021/12/28 06:13:43;;;;;;;;;;;;;;;2.29;70.38;99989.81;5356374;32;35670;-68
2021/12/28 06:16:47;;;;;;;22.45;9.65;;;;;;;1.86;72.06;99984.22;5356280;32;36041;-67
2021/12/28 06:19:55;;;;;;;26.00;10.17;;;;;;;2.14;71.92;99982.22;5352957;33;34754;-62
2021/12/28 06:23:02;;;;;;;27.83;11.43;;;;;;;2.61;68.23;99989.41;5342678;32;34601;-67
2021/12/28 06:26:05;;;;;;;24.47;10.00;;;;;;;3.06;67.30;99988.78;5371692;32;34456;-67
2021/12/28 06:29:31;;;;;;;28.03;11.07;;;;;;;2.55;68.55;99994.66;5361781;32;33668;-66
2021/12/28 06:32:34;;;;;;;27.00;10.17;;;;;;;1.97;72.49;99992.75;5350572;32;34836;-67
2021/12/28 06:35:37;;;;;;;23.10;10.43;;;;;;;2.45;69.37;100006.06;5361769;32;32978;-61
2021/12/28 06:38:45;;;;;;;21.80;9.43;;;;;;;1.80;73.73;100015.38;5354953;32;32905;-67
2021/12/28 06:41:50;;;;;;;24.58;10.20;;;;;;;2.24;71.92;100007.13;5347423;32;35188;-62
2021/12/28 06:44:55;;;;;;;25.00;10.20;;;;;;;2.55;70.78;99999.84;5354594;33;34523;-66
2021/12/28 06:47:59;;;;;;;22.33;8.87;;;;;;;2.90;69.10;99998.56;5364147;32;34545;-68
2021/12/28 06:51:03;;;;;;;20.33;8.55;;;;;;;2.67;68.99;99994.50;5354707;32;35195;-67
2021/12/28 06:54:05;;;;;;;26.90;9.02;;;;;;;2.68;68.29;99998.81;5345772;32;34805;-67
2021/12/28 06:57:11;;;;;;;22.30;8.67;;;;;;;2.54;70.09;100002.47;5362251;32;35241;-61
2021/12/28 07:00:21;;;;;;;25.37;9.57;;;;;;;2.03;71.93;100002.19;5345438;33;34459;-67
2021/12/28 07:03:24;;;;;;;25.20;9.60;;;;;;;2.60;71.20;99989.44;5363403;32;34625;-62
2021/12/28 07:06:28;;;;;;;23.43;9.87;;;;;;;2.84;68.95;100007.28;5352262;32;34237;-67
2021/12/28 07:09:33;;;;;;;25.13;10.37;;;;;;;3.09;67.58;100000.00;5379245;32;35232;-62
2021/12/28 07:12:36;;;;;;;23.60;8.87;;;;;;;3.33;66.94;100003.09;5355350;32;34773;-62
2021/12/28 07:15:47;;;;;;;26.10;9.87;;;;;;;2.68;68.76;100011.78;5378054;32;35776;-61
2021/12/28 07:18:53;;;;;;;26.23;9.40;;;;;;;2.74;69.70;100008.25;5392580;32;34399;-67
2021/12/28 07:21:57;;;;;;;21.02;9.75;;;;;;;2.60;71.48;100013.63;5382071;32;34835;-62
2021/12/28 07:24:59;;;;;;;21.33;8.50;;;;;;;3.15;68.30;100023.25;5380152;32;34030;-67
2021/12/28 07:28:04;;;;;;;21.95;9.15;;;;;;;3.01;68.23;100025.19;5387910;32;35245;-67
2021/12/28 07:31:10;;;;;;;24.23;9.37;;;;;;;3.29;67.18;100036.06;5378733;32;33518;-67
2021/12/28 07:34:13;;;;;;;22.57;9.70;;;;;;;2.96;69.06;100039.97;5384718;32;34104;-64
2021/12/28 07:37:18;;;;;;;23.57;9.40;;;;;;;3.00;68.37;100028.69;5374381;32;33169;-66
2021/12/28 07:40:22;;;;;;;22.27;7.80;;;;;;;3.47;65.79;100032.28;5352793;32;33275;-68
2021/12/28 07:43:24;;;;;;;19.05;7.10;;;;;;;3.24;66.32;100030.06;5379351;32;34239;-67
2021/12/28 07:46:27;;;;;;;16.80;7.20;;;;;;;3.01;67.43;100025.19;5385531;32;34487;-67
2021/12/28 07:49:31;;;;;;;17.23;7.53;;;;;;;2.52;68.67;100035.38;5374575;32;34254;-68
2021/12/28 07:52:35;;;;;;;17.07;7.20;;;;;;;2.96;67.51;100030.47;5381851;32;32815;-66
2021/12/28 07:55:44;;;;;;;18.87;7.93;;;;;;;2.78;67.93;100030.72;5361030;32;33449;-61
2021/12/28 07:59:05;;;;;;;17.63;6.70;;;;;;;2.91;67.21;100029.66;5387540;32;34724;-68
2021/12/28 08:02:25;;;;;;;16.17;7.17;;;;;;;2.94;67.17;100034.81;5389505;32;34914;-61
2021/12/28 08:05:29;;;;;;;16.60;7.43;;;;;;;2.56;69.29;100037.88;5370415;32;34532;-62
2021/12/28 08:08:33;;;;;;;19.43;7.33;;;;;;;2.68;69.19;100039.47;5375159;32;33892;-67
2021/12/28 08:11:37;;;;;;;23.15;9.35;;;;;;;3.17;67.21;100031.91;5386860;32;32975;-68
2021/12/28 08:14:42;;;;;;;26.70;11.33;;;;;;;2.74;68.73;100022.97;5369885;32;34396;-61
2021/12/28 08:17:45;;;;;;;26.60;10.33;;;;;;;2.29;71.48;100030.44;5391696;32;33996;-61
2021/12/28 08:20:51;;;;;;;27.53;10.43;;;;;;;2.69;71.11;100026.47;5395432;32;32579;-67
2021/12/28 08:23:54;;;;;;;30.20;12.07;;;;;;;2.23;72.76;100036.53;5387052;32;34201;-65
2021/12/28 08:26:57;;;;;;;28.70;12.35;;;;;;;2.79;70.59;100023.78;5400586;32;34663;-67
2021/12/28 08:30:01;;;;;;;21.80;9.10;;;;;;;3.25;69.03;100026.59;5367746;32;33034;-61
2021/12/28 08:33:12;;;;;;;23.53;9.93;;;;;;;3.74;65.75;100031.88;5380760;32;35302;-62
2021/12/28 08:36:14;;;;;;;24.70;10.23;;;;;;;3.71;65.62;100029.31;5365380;32;34459;-62
2021/12/28 08:39:19;;;;;;;;;;;;;;;2.88;69.39;100027.09;5354605;32;34962;-61
2021/12/28 08:42:23;;;;;;;22.17;10.23;;;;;;;3.25;67.69;100030.03;5384096;32;34663;-66
2021/12/28 08:45:32;;;;;;;25.27;9.70;;;;;;;2.99;69.02;100024.38;5361044;32;33366;-61
2021/12/28 08:48:37;;;;;;;25.80;10.60;;;;;;;3.28;68.09;100025.66;5389463;32;34923;-67
2021/12/28 08:51:39;;;;;;;22.67;9.93;;;;;;;2.97;69.14;100042.56;5392367;32;34758;-66
2021/12/28 08:54:43;;;;;;;25.87;10.27;;;;;;;3.58;67.05;100025.19;5368922;32;34997;-68
2021/12/28 08:57:48;;;;;;;24.33;10.07;;;;;;;3.41;67.29;100033.25;5380951;32;34250;-62
2021/12/28 09:00:54;;;;;;;24.63;10.10;;;;;;;3.37;66.89;100031.59;5362864;32;34358;-69
2021/12/28 09:04:13;;;;;;;26.83;10.83;;;;;;;3.54;67.32;100039.09;5396649;32;34514;-61
2021/12/28 09:07:24;;;;;;;27.47;11.03;;;;;;;3.70;65.93;100032.78;5340366;33;34222;-61
2021/12/28 09:10:32;;;;;;;26.60;10.33;;;;;;;3.22;68.30;100035.28;5322618;33;32867;-61
2021/12/28 09:13:37;;;;;;;32.40;10.93;;;;;;;2.49;70.28;100038.84;5318408;33;35374;-62
2021/12/28 09:16:46;;;;;;;21.13;8.67;;;;;;;3.85;65.70;100036.87;5323105;33;33343;-66
2021/12/28 09:19:49;;;;;;;25.27;10.57;;;;;;;3.72;65.39;100027.56;5323636;33;34611;-61
2021/12/28 09:23:01;;;;;;;25.73;10.37;;;;;;;3.68;65.83;100016.37;5333340;33;34772;-61
2021/12/28 09:26:06;;;;;;;25.80;10.27;;;;;;;2.40;72.36;100023.41;5332521;33;34756;-61
2021/12/28 09:29:31;;;;;;;24.10;9.83;;;;;;;2.35;72.79;100013.06;5323162;33;34910;-69
2021/12/28 09:32:39;;;;;;;24.10;9.53;;;;;;;1.48;75.00;100013.06;5331576;33;33012;-61
2021/12/28 09:35:48;;;;;;;22.73;9.60;;;;;;;1.89;73.79;100010.97;5337537;33;33849;-61
2021/12/28 09:38:54;;;;;;;24.20;9.70;;;;;;;2.05;75.11;100006.47;5330401;33;34764;-62
2021/12/28 09:41:59;;;;;;;23.25;10.13;;;;;;;2.29;74.18;100001.91;5343419;33;34005;-62
2021/12/28 09:45:09;;;;;;;20.83;9.00;;;;;;;3.02;69.53;100008.72;5323382;33;33634;-64
2021/12/28 09:48:13;;;;;;;23.57;9.83;;;;;;;1.80;73.62;100021.44;5359378;33;36161;-62
2021/12/28 09:51:19;;;;;;;25.80;11.10;;;;;;;2.92;70.12;100018.41;5337663;33;37600;-68
2021/12/28 09:54:25;;;;;;;23.20;9.60;;;;;;;3.74;65.72;100018.88;5335574;33;34794;-63
2021/12/28 09:57:36;;;;;;;26.15;10.15;;;;;;;3.82;65.55;100020.47;5346930;32;33797;-61
2021/12/28 10:00:51;;;;;;;24.07;11.27;;;;;;;3.47;67.67;100007.16;5376249;32;35694;-62
2021/12/28 10:04:02;;;;;;;29.03;12.17;;;;;;;3.44;67.28;100021.97;5376195;32;35689;-68
2021/12/28 10:07:25;;;;;;;22.80;9.53;;;;;;;3.76;65.92;100022.28;5369538;32;33879;-68
2021/12/28 10:10:39;;;;;;;21.23;8.67;;;;;;;3.56;67.67;100018.31;5348226;32;35219;-62
2021/12/28 10:13:44;;;;;;;29.07;12.10;;;;;;;3.61;66.66;100016.50;5372959;32;33975;-61
2021/12/28 10:16:54;;;;;;;27.43;11.67;;;;;;;3.52;67.10;100007.09;5354860;32;35274;-66
2021/12/28 10:19:57;;;;;;;29.13;12.30;;;;;;;3.52;67.33;100001.91;5371773;32;35721;-68
2021/12/28 10:23:06;;;;;;;30.33;12.20;;;;;;;3.15;67.83;100005.06;5360272;32;33914;-62
2021/12/28 10:26:19;;;;;;;32.57;13.03;;;;;;;2.15;72.32;100002.94;5367227;32;34957;-62
2021/12/28 10:29:33;;;;;;;28.03;12.93;;;;;;;3.05;71.55;99995.72;5358471;32;33572;-63
2021/12/28 10:32:39;;;;;;;27.23;13.00;;;;;;;3.25;70.25;99996.28;5349407;32;34353;-61
2021/12/28 10:35:54;;;;;;;33.83;15.47;;;;;;;3.64;67.70;99986.09;5382858;32;33990;-67
2021/12/28 10:38:58;;;;;;;33.97;14.07;;;;;;;3.45;69.60;99985.56;5375341;32;34892;-68
2021/12/28 10:42:01;;;;;;;39.43;13.73;;;;;;;2.84;70.69;99986.50;5381674;32;34657;-68
2021/12/28 10:45:08;;;;;;;34.72;13.77;;;;;;;3.73;67.36;99967.75;5391831;32;32748;-61
2021/12/28 10:48:15;;;;;;;31.10;13.50;;;;;;;2.47;72.69;99975.75;5374733;32;34742;-61
2021/12/28 10:51:30;;;;;;;36.40;14.03;;;;;;;3.43;69.39;99968.28;5376033;32;34516;-62
2021/12/28 10:54:33;;;;;;;37.73;13.90;;;;;;;2.87;70.88;99975.22;5383241;32;34779;-61
2021/12/28 10:57:41;;;;;;;37.33;15.23;;;;;;;3.73;67.78;99969.50;5375716;32;33166;-63
2021/12/28 11:00:43;;;;;;;31.27;13.57;;;;;;;3.87;67.11;99964.91;5364768;32;34457;-62
2021/12/28 11:03:55;;;;;;;26.47;12.57;;;;;;;3.33;68.94;99971.91;5377269;32;34739;-63
2021/12/28 11:07:04;;;;;;;29.37;12.27;;;;;;;3.81;67.08;99957.22;5376710;32;34040;-62
2021/12/28 11:10:07;;;;;;;30.93;12.90;;;;;;;3.18;69.42;99971.28;5380128;32;35290;-68
2021/12/28 11:13:12;;;;;;;28.90;12.50;;;;;;;3.37;67.70;99964.06;5369349;32;34196;-67
2021/12/28 11:16:19;;;;;;;26.73;11.33;;;;;;;3.86;67.06;99951.94;5360770;32;33088;-68
2021/12/28 11:19:34;;;;;;;30.57;11.70;;;;;;;3.53;68.05;99955.09;5371997;32;34004;-60
2021/12/28 11:22:40;;;;;;;23.47;10.33;;;;;;;3.76;66.84;99949.50;5386570;32;33123;-67
2021/12/28 11:25:44;;;;;;;23.50;10.20;;;;;;;3.43;67.97;99947.50;5379726;32;35035;-68
2021/12/28 11:29:05;;;;;;;30.00;11.57;;;;;;;3.63;67.42;99942.81;5373375;32;33144;-67
2021/12/28 11:32:17;;;;;;;31.20;12.45;;;;;;;3.64;67.91;99936.72;5388115;32;34720;-69
2021/12/28 11:35:19;;;;;;;32.93;11.60;;;;;;;3.72;66.81;99939.19;5373681;32;35211;-67
2021/12/28 11:38:24;;;;;;;28.12;10.88;;;;;;;3.38;69.27;99933.75;5396114;32;32447;-61
2021/12/28 11:41:33;;;;;;;32.97;13.43;;;;;;;3.55;67.98;99928.25;5368175;32;33939;-62
2021/12/28 11:44:38;;;;;;;28.20;11.03;;;;;;;3.11;69.85;99935.06;5379748;32;32609;-62
2021/12/28 11:47:42;;;;;;;31.43;12.70;;;;;;;3.25;70.45;99928.75;5363396;32;34060;-61
2021/12/28 11:50:46;;;;;;;25.37;10.97;;;;;;;3.50;69.43;99910.16;5374000;32;34639;-68
2021/12/28 11:53:52;;;;;;;30.43;11.90;;;;;;;3.66;68.57;99898.56;5368936;32;34652;-68
2021/12/28 11:57:01;;;;;;;27.27;11.50;;;;;;;3.50;70.16;99897.16;5370746;32;35123;-62
2021/12/28 12:00:11;;;;;;;24.67;10.87;;;;;;;3.83;67.90;99885.25;5384267;32;34947;-62
2021/12/28 12:03:36;;;;;;;28.03;11.07;;;;;;;3.66;68.39;99887.31;5385961;32;35138;-61
2021/12/28 12:07:09;;;;;;;28.00;11.53;;;;;;;3.47;69.98;99897.19;5345360;32;33006;-61
2021/12/28 12:10:19;;;;;;;29.70;10.97;;;;;;;3.86;67.42;99879.13;5386487;32;33855;-61
2021/12/28 12:13:28;;;;;;;24.87;10.60;;;;;;;3.77;67.50;99865.44;5364064;32;33121;-62
2021/12/28 12:16:31;;;;;;;25.63;10.27;;;;;;;3.23;69.36;99863.00;5385598;32;35328;-61
2021/12/28 12:19:51;;;;;;;23.97;10.23;;;;;;;3.59;68.90;99859.75;5377011;32;33882;-67
2021/12/28 12:23:02;;;;;;;25.63;9.53;;;;;;;3.14;70.45;99857.94;5362026;32;34566;-61
2021/12/28 12:26:18;;;;;;;23.03;10.03;;;;;;;3.39;69.68;99847.97;5386542;32;33082;-61
2021/12/28 12:29:21;;;;;;;24.07;9.77;;;;;;;2.77;73.21;99847.34;5384088;32;34265;-68
2021/12/28 12:32:56;;;;;;;23.12;9.68;;;;;;;2.73;72.33;99850.84;5377554;32;33560;-67
2021/12/28 12:36:00;;;;;;;23.37;9.17;;;;;;;2.63;73.72;99844.06;5390738;32;34877;-61
2021/12/28 12:39:08;;;;;;;19.27;7.60;;;;;;;3.34;69.49;99833.34;5371993;32;34215;-67
2021/12/28 12:42:14;;;;;;;19.53;8.27;;;;;;;1.83;76.11;99837.41;5387408;32;34380;-67
2021/12/28 12:45:57;;;;;;;22.13;7.97;;;;;;;1.66;79.54;99835.91;5360138;32;34345;-68
2021/12/28 12:49:29;;;;;;;23.40;6.73;;;;;;;3.22;72.11;99819.72;5377988;32;35706;-67
2021/12/28 12:52:33;;;;;;;17.63;6.47;;;;;;;3.28;70.02;99828.28;5381697;32;34637;-68
2021/12/28 12:55:36;;;;;;;14.77;6.47;;;;;;;3.08;71.67;99826.88;5373109;32;34753;-68
2021/12/28 12:58:48;;;;;;;14.10;5.93;;;;;;;3.61;68.74;99819.00;5390099;32;34784;-62
2021/12/28 13:01:56;;;;;;;14.17;5.33;;;;;;;3.70;68.23;99822.25;5364597;32;34581;-61
2021/12/28 13:05:18;;;;;;;13.70;5.87;;;;;;;3.77;67.65;99825.59;5378973;32;33247;-63
2021/12/28 13:08:22;;;;;;;15.43;5.67;;;;;;;2.96;71.84;99830.56;5382263;32;33485;-67
2021/12/28 13:11:32;;;;;;;15.23;5.83;;;;;;;3.22;71.28;99835.31;5368792;32;32623;-63
2021/12/28 13:14:36;;;;;;;13.03;5.50;;;;;;;3.56;69.41;99821.69;5371597;32;35100;-69
2021/12/28 13:17:43;;;;;;;12.57;5.22;;;;;;;3.84;67.55;99829.78;5366187;32;34899;-61
2021/12/28 13:20:49;;;;;;;10.43;4.60;;;;;;;3.30;69.17;99834.31;5371971;32;32893;-68
2021/12/28 13:24:08;;;;;;;9.60;4.67;;;;;;;3.49;69.09;99828.75;5391440;32;34207;-60
2021/12/28 13:27:18;;;;;;;12.27;5.33;;;;;;;3.35;68.77;99830.75;5378520;32;34266;-66
2021/12/28 13:30:32;;;;;;;12.73;5.10;;;;;;;3.47;69.67;99837.44;5391684;32;33139;-61
2021/12/28 13:33:50;;;;;;;13.50;4.80;;;;;;;3.25;70.09;99834.37;5366801;32;32985;-61
2021/12/28 13:36:59;;;;;;;10.33;3.67;;;;;;;3.22;70.68;99839.63;5366503;32;32868;-61
2021/12/28 13:40:14;;;;;;;9.63;3.90;;;;;;;3.51;69.33;99831.31;5378143;32;34883;-61
2021/12/28 13:43:22;;;;;;;12.63;4.68;;;;;;;3.49;69.39;99839.13;5381707;32;34620;-68
2021/12/28 13:46:30;;;;;;;10.57;4.03;;;;;;;3.64;68.67;99827.59;5382992;32;32945;-61
2021/12/28 13:49:33;;;;;;;11.27;4.93;;;;;;;3.49;69.69;99833.09;5379370;32;32743;-67
2021/12/28 13:53:02;;;;;;;12.17;4.97;;;;;;;3.05;71.88;99833.87;5368742;32;35328;-62
2021/12/28 13:56:14;;;;;;;9.37;4.17;;;;;;;3.52;70.29;99825.22;5383282;32;34570;-61
2021/12/28 13:59:17;;;;;;;12.97;4.57;;;;;;;3.60;69.53;99825.91;5386327;32;34168;-67
2021/12/28 14:02:22;;;;;;;12.68;4.90;;;;;;;3.61;69.52;99837.19;5375412;32;34149;-62
2021/12/28 14:05:27;;;;;;;11.77;4.80;;;;;;;3.40;70.61;99828.91;5380695;32;34016;-67
2021/12/28 14:08:37;;;;;;;14.07;5.10;;;;;;;3.46;70.01;99833.97;5374885;32;34984;-62
2021/12/28 14:11:51;;;;;;;11.53;4.53;;;;;;;3.64;69.25;99831.94;5387614;32;32707;-61
2021/12/28 14:14:55;;;;;;;;;;;;;;;3.68;69.20;99826.66;5376134;32;34234;-67
2021/12/28 14:18:24;;;;;;;12.77;5.47;;;;;;;3.29;70.72;99823.06;5386084;32;33760;-63
2021/12/28 14:21:31;;;;;;;11.07;5.23;;;;;;;3.51;70.86;99823.50;5377113;32;34139;-61
2021/12/28 14:24:34;;;;;;;12.67;5.10;;;;;;;3.52;69.45;99822.62;5374535;32;34643;-61
2021/12/28 14:27:37;;;;;;;14.35;5.28;;;;;;;3.31;70.31;99838.63;5388078;32;32622;-62
2021/12/28 14:30:41;;;;;;;;;;;;;;;3.33;70.11;99842.03;5353541;32;34071;-62
2021/12/28 14:33:55;;;;;;;14.13;5.07;;;;;;;3.33;70.20;99845.50;5394467;32;34680;-62
2021/12/28 14:37:05;;;;;;;12.67;5.83;;;;;;;3.50;69.71;99835.66;5391153;32;33958;-68